Terminal Aerodrome Forecast
Issued by NWS Raleigh/Durham, NC

Current Version | Previous Version | Text Only | Print | Product List | Glossary On
Versions: 1 2 3 4 5 6 7 8 9 10 11 12 13 14 15 16 17 18 19 20 21 22 23 24 25 26 27 28 29 30 31 32 33 34 35 36 37 38
000 FTUS42 KRAH 030930 AAA TAFRDU TAF AMD KRDU 030930Z 0310/0406 15003KT P6SM FEW015 SCT250 TEMPO 0310/0313 BKN012 FM031400 22008KT P6SM FEW020 SCT040 SCT250=

USA.gov is the U.S. government's official web portal to all federal, state and local government web resources and services.